Time;durP1;ratioP1;P1;durP2;ratioP2;P2;SDS_P1;SDS_P2;PMS_P1;PMS_P2;Temp;Humidity;BMP_temperature;BMP_pressure;BME280_temperature;BME280_humidity;BME280_pressure;Samples;Min_cycle;Max_cycle;Signal;HPM_P1;HPM_P2
2023/05/27 00:00:44;;;;;;;15.40;11.25;;;;;;;;;;5062971;28;20134;-75
2023/05/27 00:03:11;;;;;;;16.67;10.55;;;;;;;;;;5061228;28;20028;-76
2023/05/27 00:05:37;;;;;;;11.15;10.02;;;;;;;;;;5066071;28;20472;-75
2023/05/27 00:08:03;;;;;;;15.35;11.45;;;;;;;;;;5065083;28;20107;-76
2023/05/27 00:10:29;;;;;;;14.90;10.70;;;;;;;;;;5062081;28;20032;-76
2023/05/27 00:12:55;;;;;;;14.05;10.95;;;;;;;;;;5068279;28;20040;-76
2023/05/27 00:15:22;;;;;;;13.98;12.48;;;;;;;;;;5063563;28;20107;-75
2023/05/27 00:17:49;;;;;;;12.07;10.88;;;;;;;;;;5057061;28;20139;-74
2023/05/27 00:20:16;;;;;;;12.40;9.30;;;;;;;;;;5061260;28;20027;-77
2023/05/27 00:22:42;;;;;;;9.95;8.60;;;;;;;;;;5058525;28;20075;-75
2023/05/27 00:25:08;;;;;;;9.70;8.63;;;;;;;;;;5061818;28;20077;-75
2023/05/27 00:27:35;;;;;;;15.77;8.50;;;;;;;;;;5058843;28;20040;-75
2023/05/27 00:30:01;;;;;;;10.25;8.52;;;;;;;;;;5066853;28;20033;-76
2023/05/27 00:32:28;;;;;;;14.68;8.45;;;;;;;;;;5058734;28;20335;-75
2023/05/27 00:34:54;;;;;;;10.18;8.00;;;;;;;;;;5061006;28;20536;-75
2023/05/27 00:37:20;;;;;;;12.73;8.73;;;;;;;;;;5067096;28;20068;-76
2023/05/27 00:39:46;;;;;;;9.45;8.27;;;;;;;;;;5068393;28;20133;-75
2023/05/27 00:42:14;;;;;;;11.75;8.30;;;;;;;;;;5058978;28;20541;-75
2023/05/27 00:44:40;;;;;;;11.48;8.65;;;;;;;;;;5058940;28;20541;-75
2023/05/27 00:47:07;;;;;;;10.77;9.68;;;;;;;;;;5060469;28;20120;-76
2023/05/27 00:49:33;;;;;;;12.05;8.85;;;;;;;;;;5052575;28;20040;-75
2023/05/27 00:52:00;;;;;;;16.13;9.80;;;;;;;;;;5059319;28;20032;-75
2023/05/27 00:54:27;;;;;;;16.35;10.43;;;;;;;;;;5059467;28;20090;-75
2023/05/27 00:56:53;;;;;;;11.68;10.18;;;;;;;;;;5058913;28;20112;-76
2023/05/27 00:59:20;;;;;;;10.88;9.00;;;;;;;;;;5057576;28;20421;-76
2023/05/27 01:01:46;;;;;;;11.52;8.70;;;;;;;;;;5060361;28;20235;-75
2023/05/27 01:04:12;;;;;;;10.07;7.82;;;;;;;;;;5057820;28;20024;-75
2023/05/27 01:06:39;;;;;;;11.63;7.97;;;;;;;;;;5061042;28;20098;-75
2023/05/27 01:09:05;;;;;;;8.82;7.93;;;;;;;;;;5057953;28;20107;-75
2023/05/27 01:11:38;;;;;;;10.48;7.78;;;;;;;;;;5059287;28;20059;-75
2023/05/27 01:14:07;;;;;;;9.60;7.50;;;;;;;;;;5062773;28;20027;-75
2023/05/27 01:16:33;;;;;;;7.47;6.72;;;;;;;;;;5064255;28;20146;-76
2023/05/27 01:19:03;;;;;;;10.23;7.15;;;;;;;;;;5068179;28;20074;-75
2023/05/27 01:21:30;;;;;;;8.65;7.30;;;;;;;;;;5069779;28;20024;-76
2023/05/27 01:24:03;;;;;;;10.02;7.10;;;;;;;;;;5064757;28;20163;-75
2023/05/27 01:26:29;;;;;;;8.23;7.40;;;;;;;;;;5062108;28;20020;-76
2023/05/27 01:28:55;;;;;;;8.35;7.47;;;;;;;;;;5064667;28;20078;-76
2023/05/27 01:31:46;;;;;;;11.27;7.30;;;;;;;;;;5066299;28;20017;-76
2023/05/27 01:34:15;;;;;;;7.47;6.65;;;;;;;;;;5062205;28;20039;-76
2023/05/27 01:36:44;;;;;;;13.68;8.85;;;;;;;;;;5064232;28;20112;-75
2023/05/27 01:39:11;;;;;;;11.40;9.43;;;;;;;;;;5059536;28;20021;-75
2023/05/27 01:41:38;;;;;;;17.42;8.65;;;;;;;;;;5064619;28;20032;-75
2023/05/27 01:44:04;;;;;;;10.18;8.45;;;;;;;;;;5062371;28;20216;-75
2023/05/27 01:46:30;;;;;;;9.13;7.43;;;;;;;;;;5065909;28;20017;-76
2023/05/27 01:48:57;;;;;;;7.72;6.93;;;;;;;;;;5063530;28;20123;-75
2023/05/27 01:51:23;;;;;;;7.25;6.55;;;;;;;;;;5065714;28;20063;-75
2023/05/27 01:53:49;;;;;;;7.97;6.53;;;;;;;;;;5063999;28;20079;-76
2023/05/27 01:56:15;;;;;;;8.35;6.88;;;;;;;;;;5065124;28;20017;-76
2023/05/27 01:58:41;;;;;;;7.95;6.40;;;;;;;;;;5064001;28;20398;-75
2023/05/27 02:01:08;;;;;;;10.32;6.60;;;;;;;;;;5064765;28;20040;-75
2023/05/27 02:03:34;;;;;;;9.20;7.25;;;;;;;;;;5064713;28;20150;-75
2023/05/27 02:06:00;;;;;;;8.13;6.88;;;;;;;;;;5066401;28;20024;-75
2023/05/27 02:08:27;;;;;;;7.03;6.32;;;;;;;;;;5063618;28;20036;-75
2023/05/27 02:10:53;;;;;;;8.70;6.65;;;;;;;;;;5063565;28;20025;-75
2023/05/27 02:13:20;;;;;;;9.52;6.95;;;;;;;;;;5064585;28;20121;-75
2023/05/27 02:15:46;;;;;;;6.93;6.22;;;;;;;;;;5064508;28;20090;-76
2023/05/27 02:18:12;;;;;;;8.45;6.28;;;;;;;;;;5065205;28;20143;-75
2023/05/27 02:20:39;;;;;;;8.25;6.55;;;;;;;;;;5066031;28;20021;-76
2023/05/27 02:23:07;;;;;;;7.72;6.53;;;;;;;;;;5062504;28;20225;-75
2023/05/27 02:25:33;;;;;;;7.68;6.30;;;;;;;;;;5064491;28;20021;-76
2023/05/27 02:28:02;;;;;;;6.70;5.95;;;;;;;;;;5063710;28;20028;-76
2023/05/27 02:30:30;;;;;;;6.93;5.88;;;;;;;;;;5065201;28;20493;-75
2023/05/27 02:32:57;;;;;;;8.23;6.40;;;;;;;;;;5061647;28;20035;-75
2023/05/27 02:35:23;;;;;;;7.28;5.97;;;;;;;;;;5064049;28;20650;-75
2023/05/27 02:37:49;;;;;;;9.45;6.35;;;;;;;;;;5060707;28;20032;-75
2023/05/27 02:40:25;;;;;;;7.95;5.78;;;;;;;;;;5064431;28;20020;-74
2023/05/27 02:42:52;;;;;;;7.63;5.97;;;;;;;;;;5060791;28;20029;-76
2023/05/27 02:45:18;;;;;;;7.10;5.97;;;;;;;;;;5063259;28;20020;-75
2023/05/27 02:47:44;;;;;;;9.85;6.88;;;;;;;;;;5061304;28;20043;-75
2023/05/27 02:50:10;;;;;;;7.53;6.47;;;;;;;;;;5064986;28;20052;-77
2023/05/27 02:52:37;;;;;;;7.90;6.45;;;;;;;;;;5063729;28;20108;-75
2023/05/27 02:55:03;;;;;;;7.00;6.30;;;;;;;;;;5065241;28;20028;-75
2023/05/27 02:57:30;;;;;;;6.72;6.03;;;;;;;;;;5062745;28;20031;-75
2023/05/27 02:59:56;;;;;;;8.85;6.72;;;;;;;;;;5062797;28;20024;-75
2023/05/27 03:02:22;;;;;;;6.93;6.22;;;;;;;;;;5060346;28;20041;-75
2023/05/27 03:04:48;;;;;;;7.13;6.43;;;;;;;;;;5056845;28;20125;-77
2023/05/27 03:07:15;;;;;;;8.07;6.25;;;;;;;;;;5064414;28;20652;-75
2023/05/27 03:09:41;;;;;;;7.97;6.70;;;;;;;;;;5057609;28;20040;-76
2023/05/27 03:12:07;;;;;;;7.35;6.32;;;;;;;;;;5061277;28;20021;-75
2023/05/27 03:14:34;;;;;;;7.78;6.50;;;;;;;;;;5066219;28;20028;-75
2023/05/27 03:17:00;;;;;;;6.90;6.13;;;;;;;;;;5062845;28;20385;-75
2023/05/27 03:19:26;;;;;;;7.63;6.50;;;;;;;;;;5061348;28;20101;-76
2023/05/27 03:21:52;;;;;;;8.20;6.50;;;;;;;;;;5063124;28;20104;-76
2023/05/27 03:24:18;;;;;;;8.32;5.88;;;;;;;;;;5069664;28;20130;-77
2023/05/27 03:26:44;;;;;;;8.98;7.88;;;;;;;;;;5064886;28;20530;-76
2023/05/27 03:29:11;;;;;;;13.38;8.90;;;;;;;;;;5066637;28;20096;-76
2023/05/27 03:31:37;;;;;;;13.70;10.35;;;;;;;;;;5063871;28;20056;-75
2023/05/27 03:34:03;;;;;;;13.02;10.32;;;;;;;;;;5069697;28;20111;-76
2023/05/27 03:36:29;;;;;;;14.63;10.02;;;;;;;;;;5067063;28;20103;-75
2023/05/27 03:38:56;;;;;;;12.50;9.60;;;;;;;;;;5064571;28;20025;-75
2023/05/27 03:41:22;;;;;;;12.52;9.65;;;;;;;;;;5067365;28;20125;-76
2023/05/27 03:43:49;;;;;;;10.65;8.38;;;;;;;;;;5064809;28;20036;-76
2023/05/27 03:46:15;;;;;;;9.25;7.88;;;;;;;;;;5063441;28;20032;-76
2023/05/27 03:48:41;;;;;;;8.75;7.28;;;;;;;;;;5065509;28;20032;-75
2023/05/27 03:51:07;;;;;;;8.32;7.38;;;;;;;;;;5067692;28;20050;-76
2023/05/27 03:53:35;;;;;;;10.85;8.23;;;;;;;;;;5069349;28;20161;-75
2023/05/27 03:56:01;;;;;;;9.57;7.78;;;;;;;;;;5063468;28;20063;-76
2023/05/27 03:58:27;;;;;;;9.70;8.13;;;;;;;;;;5064210;28;20885;-75
2023/05/27 04:00:54;;;;;;;10.20;7.63;;;;;;;;;;5068699;28;20127;-77
2023/05/27 04:03:21;;;;;;;11.63;8.75;;;;;;;;;;5062534;28;20032;-76
2023/05/27 04:05:47;;;;;;;11.55;8.98;;;;;;;;;;5064432;28;20077;-75
2023/05/27 04:08:14;;;;;;;9.57;8.57;;;;;;;;;;5060723;28;20032;-75
2023/05/27 04:10:40;;;;;;;10.73;9.05;;;;;;;;;;5064477;28;20032;-76
2023/05/27 04:13:06;;;;;;;10.57;9.00;;;;;;;;;;5060998;28;20025;-76
2023/05/27 04:15:33;;;;;;;11.55;9.82;;;;;;;;;;5059631;28;20448;-76
2023/05/27 04:18:01;;;;;;;17.38;10.88;;;;;;;;;;5060795;28;20753;-75
2023/05/27 04:20:35;;;;;;;14.60;10.80;;;;;;;;;;5062693;28;20028;-75
2023/05/27 04:23:01;;;;;;;12.38;10.43;;;;;;;;;;5061319;28;20028;-77
2023/05/27 04:25:27;;;;;;;17.45;12.55;;;;;;;;;;5058099;28;20032;-76
2023/05/27 04:27:55;;;;;;;15.43;10.27;;;;;;;;;;5060069;28;20032;-76
2023/05/27 04:30:21;;;;;;;16.13;12.82;;;;;;;;;;5063831;28;20078;-77
2023/05/27 04:32:47;;;;;;;25.38;19.90;;;;;;;;;;5060859;28;20025;-76
2023/05/27 04:35:14;;;;;;;40.13;29.92;;;;;;;;;;5064358;28;20032;-76
2023/05/27 04:37:44;;;;;;;46.65;33.58;;;;;;;;;;5059640;28;20111;-75
2023/05/27 04:40:10;;;;;;;54.60;40.65;;;;;;;;;;5059308;28;20035;-75
2023/05/27 04:42:37;;;;;;;59.95;42.40;;;;;;;;;;5060570;28;20100;-75
2023/05/27 04:45:04;;;;;;;56.55;41.03;;;;;;;;;;5071709;28;20027;-76
2023/05/27 04:47:30;;;;;;;58.45;38.65;;;;;;;;;;5062093;28;20473;-75
2023/05/27 04:49:56;;;;;;;39.90;29.50;;;;;;;;;;5067476;28;20032;-76
2023/05/27 04:52:23;;;;;;;28.17;20.58;;;;;;;;;;5064852;28;20027;-76
2023/05/27 04:54:49;;;;;;;23.95;18.30;;;;;;;;;;5067342;28;20035;-76
2023/05/27 04:57:18;;;;;;;26.25;19.15;;;;;;;;;;5064486;28;20143;-76
2023/05/27 05:02:36;;;;;;;66.45;50.35;;;;;;;;;;5066554;28;20098;-75
2023/05/27 05:05:02;;;;;;;37.35;28.90;;;;;;;;;;5061769;28;20021;-75
2023/05/27 05:07:28;;;;;;;21.42;18.20;;;;;;;;;;5064465;28;20036;-75
2023/05/27 05:09:55;;;;;;;22.63;17.13;;;;;;;;;;5061874;28;20033;-76
2023/05/27 05:12:21;;;;;;;21.58;15.13;;;;;;;;;;5064793;28;20245;-75
2023/05/27 05:14:47;;;;;;;21.17;14.73;;;;;;;;;;5067274;28;20035;-74
2023/05/27 05:17:13;;;;;;;19.95;14.48;;;;;;;;;;5062875;28;20451;-73
2023/05/27 05:19:40;;;;;;;17.75;14.55;;;;;;;;;;5064164;28;20506;-73
2023/05/27 05:22:06;;;;;;;22.63;17.88;;;;;;;;;;5061417;28;20029;-73
2023/05/27 05:24:32;;;;;;;21.80;16.05;;;;;;;;;;5065118;28;20037;-73
2023/05/27 05:26:58;;;;;;;17.10;14.25;;;;;;;;;;5063258;28;20035;-73
2023/05/27 05:29:24;;;;;;;16.20;14.20;;;;;;;;;;5065989;28;20111;-73
2023/05/27 05:31:51;;;;;;;14.48;12.93;;;;;;;;;;5072017;28;20154;-75
2023/05/27 05:34:17;;;;;;;21.15;15.18;;;;;;;;;;5062773;28;20123;-75
2023/05/27 05:36:43;;;;;;;18.50;14.48;;;;;;;;;;5063846;28;20425;-76
2023/05/27 05:39:09;;;;;;;16.45;14.02;;;;;;;;;;5061703;28;20046;-76
2023/05/27 05:41:36;;;;;;;15.00;12.55;;;;;;;;;;5064968;28;20059;-76
2023/05/27 05:44:02;;;;;;;17.65;13.25;;;;;;;;;;5064241;28;20021;-75
2023/05/27 05:46:28;;;;;;;14.88;11.80;;;;;;;;;;5066466;28;20017;-77
2023/05/27 05:48:55;;;;;;;16.75;12.30;;;;;;;;;;5062813;28;20043;-73
2023/05/27 05:51:21;;;;;;;15.95;13.10;;;;;;;;;;5063583;28;20101;-74
2023/05/27 05:53:47;;;;;;;16.77;11.38;;;;;;;;;;5064654;28;20031;-77
2023/05/27 05:56:13;;;;;;;13.13;11.73;;;;;;;;;;5065550;28;20016;-74
2023/05/27 05:58:39;;;;;;;14.75;11.65;;;;;;;;;;5058645;28;20950;-74
2023/05/27 06:01:05;;;;;;;13.77;10.85;;;;;;;;;;5066364;28;20131;-74
2023/05/27 06:03:32;;;;;;;17.70;11.80;;;;;;;;;;5063877;28;20166;-74
2023/05/27 06:05:58;;;;;;;14.38;11.80;;;;;;;;;;5070689;28;20095;-74
2023/05/27 06:08:24;;;;;;;15.98;12.05;;;;;;;;;;5063838;28;20359;-77
2023/05/27 06:10:50;;;;;;;19.15;14.32;;;;;;;;;;5066373;28;20028;-74
2023/05/27 06:13:17;;;;;;;15.73;13.50;;;;;;;;;;5060866;28;20128;-74
2023/05/27 06:15:43;;;;;;;15.82;13.65;;;;;;;;;;5066020;28;20111;-74
2023/05/27 06:18:10;;;;;;;11.63;10.23;;;;;;;;;;5063170;28;20017;-74
2023/05/27 06:20:36;;;;;;;11.52;9.23;;;;;;;;;;5061687;28;20020;-74
2023/05/27 06:23:02;;;;;;;9.63;8.52;;;;;;;;;;5064113;28;20111;-74
2023/05/27 06:25:29;;;;;;;9.73;8.60;;;;;;;;;;5073763;28;20031;-74
2023/05/27 06:27:55;;;;;;;13.50;8.50;;;;;;;;;;5065830;28;20100;-74
2023/05/27 06:30:21;;;;;;;12.10;8.00;;;;;;;;;;5062334;28;20158;-75
2023/05/27 06:32:47;;;;;;;9.93;7.35;;;;;;;;;;5068163;28;20493;-74
2023/05/27 06:35:14;;;;;;;8.98;7.25;;;;;;;;;;5065040;28;20059;-74
2023/05/27 06:37:40;;;;;;;13.57;7.80;;;;;;;;;;5067875;28;20066;-74
2023/05/27 06:40:06;;;;;;;8.45;7.13;;;;;;;;;;5064765;28;20056;-74
2023/05/27 06:42:33;;;;;;;8.10;6.85;;;;;;;;;;5067447;28;20024;-74
2023/05/27 06:44:59;;;;;;;7.32;6.32;;;;;;;;;;5063724;28;20099;-74
2023/05/27 06:47:25;;;;;;;10.30;6.25;;;;;;;;;;5065083;28;20024;-74
2023/05/27 06:49:51;;;;;;;7.32;5.22;;;;;;;;;;5063199;28;20035;-74
2023/05/27 06:52:17;;;;;;;7.30;5.55;;;;;;;;;;5066997;28;20158;-75
2023/05/27 06:54:45;;;;;;;7.55;6.35;;;;;;;;;;5062412;28;20028;-74
2023/05/27 06:57:12;;;;;;;8.18;6.82;;;;;;;;;;5067622;28;20073;-74
2023/05/27 06:59:38;;;;;;;7.60;6.40;;;;;;;;;;5069981;28;20028;-74
2023/05/27 07:02:04;;;;;;;8.30;6.55;;;;;;;;;;5066875;28;20036;-74
2023/05/27 07:04:30;;;;;;;10.30;6.50;;;;;;;;;;5065657;28;20029;-74
2023/05/27 07:06:57;;;;;;;10.25;7.70;;;;;;;;;;5068341;28;20385;-74
2023/05/27 07:09:23;;;;;;;9.88;7.38;;;;;;;;;;5064596;28;20123;-74
2023/05/27 07:11:49;;;;;;;10.05;7.53;;;;;;;;;;5067201;28;20157;-74
2023/05/27 07:14:15;;;;;;;12.35;8.35;;;;;;;;;;5064568;28;20059;-76
2023/05/27 07:16:42;;;;;;;13.23;6.72;;;;;;;;;;5066289;28;20024;-75
2023/05/27 07:19:08;;;;;;;12.27;7.30;;;;;;;;;;5060738;28;20096;-74
2023/05/27 07:21:34;;;;;;;7.40;6.05;;;;;;;;;;5073435;28;20021;-74
2023/05/27 07:24:04;;;;;;;6.50;5.90;;;;;;;;;;5063206;28;20009;-74
2023/05/27 07:26:30;;;;;;;10.10;5.88;;;;;;;;;;5066270;28;20024;-74
2023/05/27 07:29:00;;;;;;;6.22;5.07;;;;;;;;;;5058667;28;20039;-74
2023/05/27 07:31:27;;;;;;;8.88;6.05;;;;;;;;;;5065853;28;20024;-74
2023/05/27 07:33:53;;;;;;;6.45;5.57;;;;;;;;;;5069435;28;20527;-74
2023/05/27 07:36:20;;;;;;;7.65;4.60;;;;;;;;;;5066667;28;20108;-74
2023/05/27 07:38:46;;;;;;;8.90;5.10;;;;;;;;;;5069913;28;20495;-74
2023/05/27 07:41:13;;;;;;;6.57;5.03;;;;;;;;;;5064555;28;20109;-74
2023/05/27 07:43:39;;;;;;;7.72;4.72;;;;;;;;;;5069232;28;20130;-74
2023/05/27 07:46:05;;;;;;;7.30;4.97;;;;;;;;;;5067887;28;20155;-76
2023/05/27 07:48:32;;;;;;;8.82;5.63;;;;;;;;;;5063686;28;20025;-74
2023/05/27 07:50:58;;;;;;;7.00;4.85;;;;;;;;;;5067786;28;20115;-74
2023/05/27 07:53:24;;;;;;;7.90;4.88;;;;;;;;;;5063560;28;20028;-74
2023/05/27 07:55:50;;;;;;;6.72;4.72;;;;;;;;;;5067115;28;20103;-74
2023/05/27 07:58:16;;;;;;;6.18;5.22;;;;;;;;;;5065861;28;20590;-75
2023/05/27 08:00:43;;;;;;;6.38;5.03;;;;;;;;;;5067021;28;20141;-74
2023/05/27 08:03:09;;;;;;;6.78;5.07;;;;;;;;;;5062687;28;20113;-74
2023/05/27 08:05:35;;;;;;;8.05;5.53;;;;;;;;;;5067475;28;20024;-74
2023/05/27 08:08:01;;;;;;;4.95;4.28;;;;;;;;;;5065598;28;20096;-73
2023/05/27 08:10:27;;;;;;;5.85;4.95;;;;;;;;;;5066768;28;20051;-74
2023/05/27 08:12:54;;;;;;;5.70;4.90;;;;;;;;;;5065653;28;20127;-74
2023/05/27 08:15:20;;;;;;;5.57;5.05;;;;;;;;;;5067192;28;20496;-74
2023/05/27 08:17:46;;;;;;;9.32;5.05;;;;;;;;;;5065936;28;20059;-74
2023/05/27 08:20:13;;;;;;;7.85;5.05;;;;;;;;;;5066953;28;20024;-74
2023/05/27 08:22:39;;;;;;;7.05;5.03;;;;;;;;;;5063274;28;20132;-74
2023/05/27 08:25:05;;;;;;;7.57;5.68;;;;;;;;;;5067330;28;20107;-74
2023/05/27 08:27:44;;;;;;;13.65;6.00;;;;;;;;;;5062133;28;20017;-74
2023/05/27 08:30:14;;;;;;;8.15;5.00;;;;;;;;;;5060001;28;20076;-74
2023/05/27 08:32:43;;;;;;;8.90;4.65;;;;;;;;;;5062669;28;20033;-74
2023/05/27 08:35:10;;;;;;;6.15;5.15;;;;;;;;;;5060872;28;20100;-74
2023/05/27 08:37:37;;;;;;;7.38;5.45;;;;;;;;;;5062464;28;20115;-73
2023/05/27 08:40:07;;;;;;;6.60;5.55;;;;;;;;;;5065349;28;20021;-73
2023/05/27 08:42:33;;;;;;;9.10;5.25;;;;;;;;;;5065102;28;20036;-74
2023/05/27 08:45:00;;;;;;;5.47;4.97;;;;;;;;;;5067100;28;20620;-74
2023/05/27 08:47:29;;;;;;;5.35;4.53;;;;;;;;;;5066318;28;20044;-74
2023/05/27 08:49:55;;;;;;;7.25;4.30;;;;;;;;;;5064216;28;20039;-74
2023/05/27 08:52:22;;;;;;;6.63;4.32;;;;;;;;;;5063568;28;20035;-74
2023/05/27 08:54:49;;;;;;;7.28;4.38;;;;;;;;;;5065254;28;20123;-74
2023/05/27 08:57:16;;;;;;;6.35;4.50;;;;;;;;;;5065242;28;20107;-74
2023/05/27 08:59:43;;;;;;;7.72;4.80;;;;;;;;;;5064207;28;20083;-74
2023/05/27 09:02:12;;;;;;;7.63;4.90;;;;;;;;;;5066539;28;20040;-74
2023/05/27 09:04:40;;;;;;;8.25;4.78;;;;;;;;;;5063421;28;20036;-75
2023/05/27 09:07:06;;;;;;;5.85;5.05;;;;;;;;;;5066255;28;20023;-73
2023/05/27 09:09:32;;;;;;;5.97;4.80;;;;;;;;;;5063389;28;20033;-74
2023/05/27 09:12:02;;;;;;;9.73;5.05;;;;;;;;;;5066713;28;20100;-74
2023/05/27 09:14:29;;;;;;;9.20;5.80;;;;;;;;;;5063544;28;20056;-75
2023/05/27 09:16:56;;;;;;;6.50;5.25;;;;;;;;;;5064588;28;20105;-74
2023/05/27 09:19:22;;;;;;;7.78;5.90;;;;;;;;;;5062471;28;20020;-74
2023/05/27 09:21:52;;;;;;;7.05;5.47;;;;;;;;;;5067771;28;20028;-74
2023/05/27 09:24:19;;;;;;;5.93;4.97;;;;;;;;;;5065710;28;20055;-74
2023/05/27 09:26:45;;;;;;;6.78;5.32;;;;;;;;;;5066638;28;20036;-75
2023/05/27 09:29:11;;;;;;;6.85;6.15;;;;;;;;;;5066016;28;20111;-76
2023/05/27 09:31:41;;;;;;;9.20;5.78;;;;;;;;;;5065062;28;20068;-74
2023/05/27 09:34:15;;;;;;;8.82;6.53;;;;;;;;;;5066356;28;20032;-74
2023/05/27 09:36:48;;;;;;;7.70;5.30;;;;;;;;;;5068743;28;20099;-74
2023/05/27 09:39:14;;;;;;;11.02;5.43;;;;;;;;;;5069832;28;20020;-73
2023/05/27 09:41:41;;;;;;;6.90;5.80;;;;;;;;;;5068593;28;20029;-74
2023/05/27 09:44:08;;;;;;;7.45;5.97;;;;;;;;;;5068772;28;20024;-74
2023/05/27 09:46:34;;;;;;;11.05;6.18;;;;;;;;;;5064907;28;20697;-73
2023/05/27 09:49:02;;;;;;;8.00;5.80;;;;;;;;;;5066908;28;20021;-74
2023/05/27 09:51:28;;;;;;;8.73;5.70;;;;;;;;;;5069937;28;20035;-74
2023/05/27 09:53:56;;;;;;;9.50;5.85;;;;;;;;;;5063563;28;20036;-74
2023/05/27 09:56:28;;;;;;;9.30;5.80;;;;;;;;;;5070066;28;20028;-75
2023/05/27 09:58:55;;;;;;;8.25;6.22;;;;;;;;;;5066651;28;20017;-73
2023/05/27 10:01:23;;;;;;;8.27;6.07;;;;;;;;;;5075809;28;20040;-74
2023/05/27 10:03:50;;;;;;;7.55;5.53;;;;;;;;;;5064834;28;20024;-74
2023/05/27 10:06:18;;;;;;;8.90;5.78;;;;;;;;;;5069021;28;20051;-74
2023/05/27 10:08:44;;;;;;;7.82;6.30;;;;;;;;;;5064443;28;20024;-73
2023/05/27 10:11:11;;;;;;;10.90;5.90;;;;;;;;;;5069300;28;20461;-74
2023/05/27 10:13:38;;;;;;;8.88;6.70;;;;;;;;;;5063122;28;20136;-74
2023/05/27 10:16:04;;;;;;;7.53;6.35;;;;;;;;;;5069383;28;20031;-73
2023/05/27 10:18:31;;;;;;;9.75;5.85;;;;;;;;;;5067749;28;20180;-74
2023/05/27 10:20:58;;;;;;;7.80;5.80;;;;;;;;;;5069144;28;20545;-74
2023/05/27 10:23:28;;;;;;;9.23;5.60;;;;;;;;;;5066689;28;20041;-74
2023/05/27 10:26:02;;;;;;;9.17;6.00;;;;;;;;;;5067832;28;20032;-74
2023/05/27 10:28:32;;;;;;;9.07;5.90;;;;;;;;;;5063807;28;20385;-74
2023/05/27 10:31:11;;;;;;;10.63;6.43;;;;;;;;;;5069164;28;20254;-73
2023/05/27 10:33:39;;;;;;;9.50;6.20;;;;;;;;;;5063762;28;20030;-74
2023/05/27 10:36:15;;;;;;;8.40;6.28;;;;;;;;;;5069181;28;20020;-74
2023/05/27 10:38:42;;;;;;;9.55;6.03;;;;;;;;;;5064535;28;20778;-75
2023/05/27 10:41:09;;;;;;;11.48;5.78;;;;;;;;;;5068678;28;20020;-74
2023/05/27 10:43:35;;;;;;;7.00;5.90;;;;;;;;;;5067692;28;20423;-74
2023/05/27 10:46:20;;;;;;;10.45;6.65;;;;;;;;;;5068551;28;20078;-74
2023/05/27 10:48:46;;;;;;;8.55;6.18;;;;;;;;;;5063354;28;20615;-74
2023/05/27 10:51:12;;;;;;;8.13;6.60;;;;;;;;;;5067447;28;20129;-75
2023/05/27 10:53:38;;;;;;;7.93;6.22;;;;;;;;;;5063449;28;20027;-74
2023/05/27 10:56:05;;;;;;;11.88;6.82;;;;;;;;;;5068713;28;20024;-74
2023/05/27 10:58:34;;;;;;;8.02;6.65;;;;;;;;;;5063241;28;20036;-75
2023/05/27 11:01:02;;;;;;;14.93;6.28;;;;;;;;;;5067135;28;20452;-74
2023/05/27 11:03:28;;;;;;;7.68;6.40;;;;;;;;;;5057672;28;20110;-74
2023/05/27 11:05:58;;;;;;;13.25;6.57;;;;;;;;;;5066995;28;20023;-74
2023/05/27 11:08:25;;;;;;;9.25;6.13;;;;;;;;;;5065327;28;20024;-75
2023/05/27 11:10:58;;;;;;;12.35;6.63;;;;;;;;;;5068123;28;20098;-74
2023/05/27 11:13:29;;;;;;;10.85;6.28;;;;;;;;;;5065724;28;20053;-74
2023/05/27 11:15:56;;;;;;;11.13;6.63;;;;;;;;;;5068132;28;20016;-74
2023/05/27 11:18:22;;;;;;;14.25;6.32;;;;;;;;;;5063377;28;20032;-73
2023/05/27 11:20:48;;;;;;;9.25;6.32;;;;;;;;;;5066026;28;20627;-74
2023/05/27 11:23:15;;;;;;;9.98;6.88;;;;;;;;;;5062614;28;20086;-73
2023/05/27 11:25:44;;;;;;;10.73;5.78;;;;;;;;;;5067205;28;20447;-74
2023/05/27 11:28:17;;;;;;;12.90;6.53;;;;;;;;;;5063362;28;20103;-74
2023/05/27 11:30:43;;;;;;;8.23;5.88;;;;;;;;;;5073650;28;20479;-74
2023/05/27 11:33:10;;;;;;;12.38;6.97;;;;;;;;;;5069426;28;20031;-74
2023/05/27 11:35:36;;;;;;;10.85;6.15;;;;;;;;;;5068052;28;20445;-74
2023/05/27 11:38:02;;;;;;;12.60;6.47;;;;;;;;;;5066213;28;20024;-74
2023/05/27 11:40:38;;;;;;;11.40;6.13;;;;;;;;;;5067427;28;20047;-75
2023/05/27 11:43:05;;;;;;;15.20;6.88;;;;;;;;;;5063726;28;20021;-73
2023/05/27 11:45:36;;;;;;;10.70;6.03;;;;;;;;;;5067185;28;20028;-73
2023/05/27 11:48:03;;;;;;;9.13;6.50;;;;;;;;;;5073203;28;20063;-73
2023/05/27 11:50:29;;;;;;;10.65;7.05;;;;;;;;;;5066408;28;20032;-73
2023/05/27 11:52:56;;;;;;;10.65;6.55;;;;;;;;;;5064361;28;20025;-73
2023/05/27 11:55:25;;;;;;;9.18;6.85;;;;;;;;;;5063859;28;20780;-73
2023/05/27 11:57:52;;;;;;;10.57;7.10;;;;;;;;;;5063793;28;20842;-73
2023/05/27 12:00:19;;;;;;;11.38;7.85;;;;;;;;;;5065666;28;20032;-73
2023/05/27 12:02:45;;;;;;;12.80;7.65;;;;;;;;;;5065249;28;20071;-73
2023/05/27 12:05:12;;;;;;;16.35;6.80;;;;;;;;;;5069832;28;20021;-73
2023/05/27 12:07:40;;;;;;;14.85;9.55;;;;;;;;;;5066090;28;20056;-74
2023/05/27 12:10:09;;;;;;;16.13;10.70;;;;;;;;;;5064486;28;20107;-73
2023/05/27 12:12:35;;;;;;;14.73;11.23;;;;;;;;;;5065551;28;20025;-74
2023/05/27 12:15:02;;;;;;;18.17;11.18;;;;;;;;;;5065918;28;20052;-75
2023/05/27 12:17:28;;;;;;;13.57;9.52;;;;;;;;;;5066701;28;20083;-74
2023/05/27 12:19:54;;;;;;;13.35;8.50;;;;;;;;;;5061581;28;20017;-75
2023/05/27 12:22:21;;;;;;;17.02;9.38;;;;;;;;;;5065591;28;21850;-74
2023/05/27 12:24:51;;;;;;;15.93;8.10;;;;;;;;;;5064842;28;20032;-75
2023/05/27 12:27:17;;;;;;;14.15;7.65;;;;;;;;;;5066539;28;20066;-74
2023/05/27 12:29:43;;;;;;;15.27;8.35;;;;;;;;;;5064541;28;20070;-75
2023/05/27 12:32:10;;;;;;;12.60;7.55;;;;;;;;;;5064719;28;20449;-74
2023/05/27 12:34:36;;;;;;;9.10;6.63;;;;;;;;;;5061679;28;20059;-74
2023/05/27 12:37:02;;;;;;;9.60;6.78;;;;;;;;;;5066721;28;20017;-74
2023/05/27 12:39:28;;;;;;;11.52;6.72;;;;;;;;;;5065967;28;21221;-74
2023/05/27 12:41:54;;;;;;;13.90;7.47;;;;;;;;;;5066221;28;20035;-74
2023/05/27 12:44:20;;;;;;;13.50;8.65;;;;;;;;;;5063807;28;20128;-74
2023/05/27 12:46:47;;;;;;;14.48;8.32;;;;;;;;;;5065044;28;20021;-74
2023/05/27 12:49:13;;;;;;;20.95;9.55;;;;;;;;;;5063655;28;20128;-73
2023/05/27 12:51:39;;;;;;;13.20;7.80;;;;;;;;;;5066910;28;20024;-73
2023/05/27 12:54:06;;;;;;;14.23;9.00;;;;;;;;;;5062693;28;20028;-72
2023/05/27 12:56:32;;;;;;;13.45;8.13;;;;;;;;;;5066461;28;20504;-72
2023/05/27 12:58:58;;;;;;;14.95;9.95;;;;;;;;;;5066394;28;20059;-72
2023/05/27 13:01:24;;;;;;;10.45;8.00;;;;;;;;;;5065460;28;20129;-73
2023/05/27 13:03:51;;;;;;;11.60;8.48;;;;;;;;;;5063689;28;20108;-73
2023/05/27 13:06:17;;;;;;;13.88;10.00;;;;;;;;;;5066312;28;20440;-73
2023/05/27 13:08:43;;;;;;;19.17;9.70;;;;;;;;;;5063983;28;20016;-73
2023/05/27 13:11:09;;;;;;;10.77;8.98;;;;;;;;;;5070145;28;20174;-73
2023/05/27 13:13:36;;;;;;;16.85;8.38;;;;;;;;;;5069095;28;20108;-74
2023/05/27 13:16:02;;;;;;;18.35;9.02;;;;;;;;;;5070267;28;20074;-73
2023/05/27 13:18:28;;;;;;;17.40;8.35;;;;;;;;;;5067995;28;20054;-73
2023/05/27 13:20:54;;;;;;;17.67;8.38;;;;;;;;;;5067092;28;20059;-73
2023/05/27 13:23:21;;;;;;;13.10;7.57;;;;;;;;;;5064378;28;20037;-73
2023/05/27 13:25:48;;;;;;;11.77;7.95;;;;;;;;;;5068583;28;20035;-73
2023/05/27 13:28:14;;;;;;;15.98;8.32;;;;;;;;;;5066897;28;20111;-73
2023/05/27 13:30:40;;;;;;;10.68;7.78;;;;;;;;;;5068316;28;20028;-72
2023/05/27 13:33:06;;;;;;;12.77;7.63;;;;;;;;;;5067335;28;20122;-73
2023/05/27 13:35:33;;;;;;;13.32;7.85;;;;;;;;;;5068052;28;20106;-73
2023/05/27 13:38:00;;;;;;;10.82;7.80;;;;;;;;;;5065007;28;20481;-73
2023/05/27 13:40:26;;;;;;;16.15;7.82;;;;;;;;;;5063259;28;20495;-73
2023/05/27 13:42:52;;;;;;;14.38;7.80;;;;;;;;;;5059837;28;20309;-73
2023/05/27 13:45:18;;;;;;;14.55;8.82;;;;;;;;;;5065813;28;20480;-72
2023/05/27 13:47:45;;;;;;;11.10;7.78;;;;;;;;;;5062205;28;20069;-72
2023/05/27 13:50:11;;;;;;;15.77;9.20;;;;;;;;;;5060660;28;20282;-73
2023/05/27 13:52:38;;;;;;;14.50;8.50;;;;;;;;;;5068861;28;20508;-73
2023/05/27 13:55:05;;;;;;;12.88;8.45;;;;;;;;;;5060677;28;20040;-73
2023/05/27 13:57:31;;;;;;;15.82;9.07;;;;;;;;;;5062269;28;20195;-73
2023/05/27 13:59:58;;;;;;;16.48;8.45;;;;;;;;;;5061166;28;20381;-73
2023/05/27 14:02:24;;;;;;;17.17;9.35;;;;;;;;;;5060314;28;20074;-73
2023/05/27 14:04:50;;;;;;;16.60;8.23;;;;;;;;;;5067773;28;20427;-74
2023/05/27 14:07:16;;;;;;;12.73;8.57;;;;;;;;;;5061679;28;20641;-73
2023/05/27 14:09:43;;;;;;;16.33;8.85;;;;;;;;;;5063374;28;20071;-73
2023/05/27 14:12:09;;;;;;;12.52;8.43;;;;;;;;;;5060903;28;20028;-73
2023/05/27 14:14:36;;;;;;;18.95;9.40;;;;;;;;;;5061816;28;20664;-73
2023/05/27 14:17:02;;;;;;;14.13;8.32;;;;;;;;;;5059347;28;20049;-73
2023/05/27 14:19:28;;;;;;;19.63;9.27;;;;;;;;;;5060337;28;20067;-73
2023/05/27 14:21:54;;;;;;;15.90;8.98;;;;;;;;;;5058324;28;20089;-74
2023/05/27 14:24:21;;;;;;;14.85;8.70;;;;;;;;;;5053954;28;20028;-73
2023/05/27 14:26:47;;;;;;;12.60;8.35;;;;;;;;;;5068870;28;20028;-72
2023/05/27 14:29:13;;;;;;;13.55;9.45;;;;;;;;;;5055081;28;20123;-73
2023/05/27 14:31:39;;;;;;;15.38;8.70;;;;;;;;;;5058747;28;20679;-72
2023/05/27 14:34:05;;;;;;;13.60;8.50;;;;;;;;;;5056350;28;20820;-73